Hauptseite
METAR-TAF:

METAR-TAF

Flughäfen :

Corrientes, Argentinien

Breite: 27-27S, Länge: 058-46W, Höhe: 62 m

Beobachtung

Neuester Wetterbericht von vor 1 Stunde und 7 Minuten, um 19:00 UTC
Wind 11 kt aus Südost
Temperatur 30°C
Luftfeuchtigkeit 52%
Luftdruck 1013 hPa
Sichtweite 10 km oder mehr
Aufgelockert bewölkt in der Höhe von 2500 ft
Aufgelockert bewölkt in der Höhe von 20000 ft

METAR: SARC 181900Z 14011KT 9999 SCT025 SCT200 30/19 Q1013

Zeit: 17:07 (20:07 UTC)


TAF: fehlend

Wetterbeobachtungen und Prognosen von mehr als 4000 Flughäfen (METAR und TAF Bericht).

Die verfügbaren Stationen werden durch gelbe und rote Markierungen auf der Karte dargestellt.

Führen Sie die Maus auf sie, um den Namen der Station zu sehen.

Darauf klicken, um die Beobachtung von Wetterbeobachtungen und Prognosen zu sehen.

Um die Karte zu ändern : klicken Sie auf den grünen Tasten mit einem schwarzen Kreuz Zum Vergrößern, auf den grünen Button mit einem Gedankenstrich zu verkleinern, oder auf die grünen Pfeile für benachbarte Karten.


METAR-TAF: